createdAt,value
2022-12-11T00:01:48.037Z,3.85
2022-12-11T00:05:42.457Z,3.87
2022-12-11T00:08:45.565Z,3.84
2022-12-11T00:16:34.762Z,3.73
2022-12-11T00:20:06.538Z,3.76
2022-12-11T00:23:25.475Z,3.63
2022-12-11T00:26:55.805Z,3.64
2022-12-11T00:30:19.096Z,3.62
2022-12-11T00:33:22.935Z,3.55
2022-12-11T00:47:12.118Z,3.38
2022-12-11T00:51:10.749Z,3.37
2022-12-11T00:54:24.944Z,3.28
2022-12-11T00:57:49.841Z,3.28
2022-12-11T01:01:43.045Z,3.28
2022-12-11T01:04:52.274Z,3.26
2022-12-11T01:08:12.450Z,3.18
2022-12-11T01:12:08.677Z,3.15
2022-12-11T01:15:29.610Z,3.14
2022-12-11T01:18:56.899Z,3.09
2022-12-11T01:22:42.572Z,3.04
2022-12-11T01:26:53.796Z,2.92
2022-12-11T01:31:11.901Z,2.97
2022-12-11T01:37:07.495Z,2.91
2022-12-11T01:50:50.417Z,2.78
2022-12-11T01:54:02.186Z,2.80
2022-12-11T01:58:04.776Z,2.72
2022-12-11T02:02:45.763Z,2.77
2022-12-11T02:05:49.794Z,2.70
2022-12-11T02:09:59.099Z,2.62
2022-12-11T02:13:59.292Z,2.47
2022-12-11T02:17:06.996Z,2.24
2022-12-11T02:21:55.679Z,2.22
2022-12-11T02:25:24.588Z,2.24
2022-12-11T02:29:07.400Z,2.26
2022-12-11T02:33:10.438Z,2.24
2022-12-11T02:36:05.162Z,2.21
2022-12-11T02:40:01.341Z,2.12
2022-12-11T02:44:19.969Z,2.11
2022-12-11T02:47:46.439Z,2.09
2022-12-11T02:51:11.733Z,2.13
2022-12-11T02:55:37.615Z,2.07
2022-12-11T02:58:34.446Z,1.99
2022-12-11T03:05:17.796Z,1.85
2022-12-11T03:13:52.166Z,2.02
2022-12-11T03:17:22.507Z,1.83
2022-12-11T03:25:55.029Z,1.93
2022-12-11T03:30:07.674Z,1.92
2022-12-11T03:33:37.540Z,1.98
2022-12-11T03:37:34.893Z,1.89
2022-12-11T03:41:08.765Z,1.89
2022-12-11T03:44:34.114Z,1.84
2022-12-11T03:47:58.139Z,1.89
2022-12-11T04:01:04.404Z,1.76
2022-12-11T04:04:40.465Z,1.83
2022-12-11T04:08:54.067Z,1.59
2022-12-11T04:17:45.786Z,1.71
2022-12-11T04:22:24.699Z,1.65
2022-12-11T04:26:14.167Z,1.72
2022-12-11T04:34:20.006Z,1.65
2022-12-11T04:38:35.404Z,1.70
2022-12-11T04:42:02.577Z,1.63
2022-12-11T04:45:33.216Z,1.69
2022-12-11T04:49:15.388Z,1.72
2022-12-11T04:56:30.817Z,1.71
2022-12-11T04:59:51.137Z,1.66
2022-12-11T05:03:16.644Z,1.73
2022-12-11T05:07:21.101Z,1.64
2022-12-11T05:10:38.610Z,1.76
2022-12-11T05:14:08.406Z,1.83
2022-12-11T05:28:58.134Z,1.82
2022-12-11T05:42:54.341Z,1.85
2022-12-11T06:02:43.979Z,1.81
2022-12-11T06:06:15.285Z,1.74
2022-12-11T06:10:46.867Z,1.73
2022-12-11T06:14:50.039Z,1.78
2022-12-11T06:17:52.719Z,1.65
2022-12-11T06:20:59.484Z,1.81
2022-12-11T06:24:03.823Z,1.71
2022-12-11T06:27:30.922Z,1.73
2022-12-11T06:31:50.936Z,1.83
2022-12-11T06:35:52.149Z,1.71
2022-12-11T06:38:55.983Z,1.71
2022-12-11T06:42:14.985Z,1.66
2022-12-11T06:46:09.436Z,1.65
2022-12-11T06:49:49.583Z,1.65
2022-12-11T06:53:04.064Z,1.65
2022-12-11T06:56:40.892Z,1.67
2022-12-11T07:00:17.510Z,1.75
2022-12-11T07:04:17.662Z,1.83
2022-12-11T07:07:20.600Z,1.68
2022-12-11T07:10:24.600Z,1.80
2022-12-11T07:14:01.919Z,1.85
2022-12-11T07:22:29.289Z,1.97
2022-12-11T07:25:52.795Z,1.75
2022-12-11T07:28:59.564Z,1.84
2022-12-11T07:32:02.621Z,1.90
2022-12-11T07:44:50.983Z,2.12
2022-12-11T07:47:59.287Z,2.05
2022-12-11T07:51:27.321Z,2.40
2022-12-11T07:54:55.118Z,2.50
2022-12-11T07:58:24.711Z,2.40
2022-12-11T08:01:29.502Z,2.40
2022-12-11T08:08:41.718Z,2.33
2022-12-11T08:12:21.703Z,2.28
2022-12-11T08:16:10.793Z,2.32
2022-12-11T08:19:55.309Z,2.28
2022-12-11T08:23:47.245Z,2.29
2022-12-11T08:31:32.684Z,2.30
2022-12-11T08:35:35.546Z,2.28
2022-12-11T08:43:44.514Z,2.24
2022-12-11T08:47:05.432Z,2.35
2022-12-11T09:07:03.942Z,2.35
2022-12-11T09:10:18.672Z,2.29
2022-12-11T09:13:21.395Z,2.32
2022-12-11T09:16:29.004Z,2.41
2022-12-11T09:19:44.949Z,2.48
2022-12-11T09:22:57.625Z,2.40
2022-12-11T09:26:50.349Z,2.46
2022-12-11T09:30:34.383Z,2.48
2022-12-11T09:34:30.806Z,2.40
2022-12-11T09:38:08.446Z,2.23
2022-12-11T09:41:41.305Z,2.33
2022-12-11T09:45:15.799Z,2.55
2022-12-11T09:52:39.740Z,2.44
2022-12-11T10:02:28.166Z,2.49
2022-12-11T10:06:07.487Z,2.47
2022-12-11T10:10:02.530Z,2.55
2022-12-11T10:14:36.082Z,2.58
2022-12-11T10:18:32.865Z,2.62
2022-12-11T10:21:56.929Z,2.61
2022-12-11T10:25:12.415Z,2.61
2022-12-11T10:33:55.449Z,2.59
2022-12-11T10:37:30.462Z,2.54
2022-12-11T10:41:14.191Z,2.59
2022-12-11T10:54:40.206Z,2.45
2022-12-11T10:58:44.154Z,2.53
2022-12-11T11:02:55.649Z,2.51
2022-12-11T11:06:28.471Z,2.53
2022-12-11T11:09:59.725Z,2.59
2022-12-11T11:13:52.583Z,2.53
2022-12-11T11:17:24.738Z,2.54
2022-12-11T11:20:34.205Z,2.53
2022-12-11T11:23:45.488Z,2.57
2022-12-11T11:33:09.275Z,2.67
2022-12-11T11:46:57.038Z,2.86
2022-12-11T11:52:33.294Z,2.83
2022-12-11T11:56:00.537Z,2.63
2022-12-11T12:03:01.435Z,2.70
2022-12-11T12:06:54.126Z,2.80
2022-12-11T12:11:16.027Z,2.74
2022-12-11T12:15:37.455Z,2.93
2022-12-11T12:19:19.575Z,2.97
2022-12-11T12:29:35.628Z,2.89
2022-12-11T12:33:18.014Z,2.69
2022-12-11T12:53:29.547Z,2.70
2022-12-11T12:56:37.906Z,2.88
2022-12-11T13:05:28.336Z,2.72
2022-12-11T13:17:51.813Z,2.97
2022-12-11T13:21:47.977Z,3.07
2022-12-11T13:25:09.926Z,2.95
2022-12-11T13:28:34.186Z,2.89
2022-12-11T13:32:34.647Z,2.91
2022-12-11T13:36:17.772Z,2.94
2022-12-11T13:42:58.512Z,2.83
2022-12-11T13:46:17.911Z,2.73
2022-12-11T13:54:17.222Z,2.64
2022-12-11T14:01:40.989Z,2.67
2022-12-11T14:05:06.798Z,2.71
2022-12-11T14:08:34.144Z,2.72
2022-12-11T14:11:59.177Z,2.61
2022-12-11T14:15:44.027Z,2.60
2022-12-11T14:19:40.992Z,2.50
2022-12-11T14:23:11.393Z,2.31
2022-12-11T14:26:24.452Z,2.50
2022-12-11T14:29:40.270Z,2.43
2022-12-11T14:33:14.799Z,2.59
2022-12-11T14:37:21.525Z,2.42
2022-12-11T14:41:22.218Z,2.23
2022-12-11T14:45:26.988Z,2.39
2022-12-11T14:49:15.845Z,2.33
2022-12-11T14:52:52.746Z,2.20
2022-12-11T14:56:21.788Z,2.30
2022-12-11T15:00:16.713Z,2.20
2022-12-11T15:03:38.411Z,2.17
2022-12-11T15:07:23.654Z,2.28
2022-12-11T15:10:59.461Z,2.11
2022-12-11T15:15:04.621Z,2.02
2022-12-11T15:18:43.087Z,1.97
2022-12-11T15:21:46.242Z,2.00
2022-12-11T15:25:54.188Z,1.94
2022-12-11T15:36:16.911Z,1.94
2022-12-11T15:44:36.819Z,2.03
2022-12-11T15:47:39.670Z,1.93
2022-12-11T15:50:43.302Z,1.73
2022-12-11T15:53:46.274Z,1.90
2022-12-11T15:56:55.783Z,1.90
2022-12-11T16:00:13.962Z,1.91
2022-12-11T16:03:43.327Z,1.88
2022-12-11T16:08:08.028Z,1.73
2022-12-11T16:15:42.758Z,1.75
2022-12-11T16:18:45.587Z,1.85
2022-12-11T16:23:06.651Z,1.81
2022-12-11T16:32:24.245Z,1.78
2022-12-11T16:37:04.269Z,1.87
2022-12-11T16:40:32.486Z,1.66
2022-12-11T16:43:48.586Z,1.82
2022-12-11T16:46:53.788Z,1.64
2022-12-11T16:55:07.671Z,1.70
2022-12-11T17:04:28.687Z,1.47
2022-12-11T17:17:40.071Z,1.54
2022-12-11T17:26:17.599Z,1.53
2022-12-11T17:30:02.827Z,1.49
2022-12-11T17:34:04.083Z,1.62
2022-12-11T17:38:06.905Z,1.53
2022-12-11T17:41:42.560Z,1.37
2022-12-11T17:44:45.734Z,1.45
2022-12-11T17:48:26.687Z,1.44
2022-12-11T17:52:45.175Z,1.43
2022-12-11T17:55:54.529Z,1.54
2022-12-11T17:59:03.592Z,1.32
2022-12-11T18:03:10.496Z,1.39
2022-12-11T18:07:21.625Z,1.43
2022-12-11T18:12:02.714Z,1.28
2022-12-11T18:15:18.532Z,1.37
2022-12-11T18:18:21.204Z,1.25
2022-12-11T18:21:47.458Z,1.23
2022-12-11T18:24:50.229Z,1.22
2022-12-11T18:28:38.880Z,1.28
2022-12-11T18:32:55.081Z,1.18
2022-12-11T18:36:19.883Z,1.23
2022-12-11T18:40:33.873Z,1.29
2022-12-11T18:44:52.663Z,1.34
2022-12-11T18:53:07.114Z,1.20
2022-12-11T18:56:42.227Z,1.08
2022-12-11T19:00:23.378Z,1.16
2022-12-11T19:03:26.099Z,1.31
2022-12-11T19:06:51.915Z,1.24
2022-12-11T19:10:53.468Z,1.19
2022-12-11T19:14:35.782Z,1.19
2022-12-11T19:18:03.136Z,1.22
2022-12-11T19:21:12.585Z,1.10
2022-12-11T19:24:24.556Z,1.16
2022-12-11T19:27:27.348Z,1.15
2022-12-11T19:30:30.167Z,1.15
2022-12-11T19:33:39.585Z,1.13
2022-12-11T19:37:18.624Z,1.16
2022-12-11T19:41:26.592Z,1.03
2022-12-11T19:44:15.842Z,0.99
2022-12-11T19:47:20.387Z,1.14
2022-12-11T19:51:41.624Z,1.00
2022-12-11T19:55:06.030Z,1.06
2022-12-11T19:58:09.509Z,1.04
2022-12-11T20:01:46.033Z,0.99
2022-12-11T20:05:45.980Z,0.91
2022-12-11T20:09:31.864Z,1.03
2022-12-11T20:13:17.077Z,0.80
2022-12-11T20:17:29.535Z,0.84
2022-12-11T20:21:38.775Z,0.69
2022-12-11T20:24:56.964Z,0.69
2022-12-11T20:37:08.084Z,0.71
2022-12-11T20:41:14.307Z,0.58
2022-12-11T20:45:07.910Z,0.44
2022-12-11T20:52:46.531Z,0.49
2022-12-11T20:56:17.968Z,0.58
2022-12-11T20:59:56.698Z,0.46
2022-12-11T21:03:40.424Z,0.51
2022-12-11T21:16:08.868Z,0.32
2022-12-11T21:25:03.337Z,0.39
2022-12-11T21:29:06.500Z,0.32
2022-12-11T21:32:20.380Z,0.37
2022-12-11T21:40:26.576Z,0.01
2022-12-11T21:47:42.904Z,0.13
2022-12-11T21:51:08.679Z,-0.10
2022-12-11T21:59:26.970Z,0.01
2022-12-11T22:02:52.504Z,-0.12
2022-12-11T22:06:35.465Z,-0.04
2022-12-11T22:10:00.686Z,0.04
2022-12-11T22:13:47.869Z,-0.12
2022-12-11T22:17:37.156Z,-0.02
2022-12-11T22:20:43.247Z,-0.17
2022-12-11T22:29:00.608Z,-0.07
2022-12-11T22:32:59.991Z,-0.04
2022-12-11T22:36:33.739Z,-0.08
2022-12-11T22:51:52.406Z,-0.40
2022-12-11T22:56:11.392Z,-0.29
2022-12-11T23:16:07.040Z,-0.70
2022-12-11T23:24:46.985Z,-0.67
2022-12-11T23:28:10.119Z,-0.69
2022-12-11T23:31:54.579Z,-0.53
2022-12-11T23:35:01.027Z,-0.51
2022-12-11T23:39:07.945Z,-0.66
2022-12-11T23:43:06.543Z,-0.71
2022-12-11T23:46:16.567Z,-0.58
2022-12-11T23:49:38.367Z,-0.67
2022-12-11T23:53:19.297Z,-0.85
2022-12-11T23:56:38.215Z,-0.98
